sensor_id;sensor_type;location;lat;lon;timestamp;pressure;altitude;pressure_sealevel;temperature;humidity
41515;BME280;27247;48.020;16.720;2023-08-08T00:01:49;99977.41;;;13.63;88.59
41515;BME280;27247;48.020;16.720;2023-08-08T00:05:59;99978.81;;;13.59;88.54
41515;BME280;27247;48.020;16.720;2023-08-08T00:10:09;99973.44;;;13.59;88.35
41515;BME280;27247;48.020;16.720;2023-08-08T00:14:20;99987.16;;;13.50;88.58
41515;BME280;27247;48.020;16.720;2023-08-08T00:18:30;99976.53;;;13.41;88.99
41515;BME280;27247;48.020;16.720;2023-08-08T00:22:41;99965.88;;;13.48;88.72
41515;BME280;27247;48.020;16.720;2023-08-08T00:26:51;99970.47;;;13.33;88.85
41515;BME280;27247;48.020;16.720;2023-08-08T00:31:02;99966.44;;;13.43;88.66
41515;BME280;27247;48.020;16.720;2023-08-08T00:35:12;99969.25;;;13.35;88.55
41515;BME280;27247;48.020;16.720;2023-08-08T00:39:22;99973.22;;;13.39;88.48
41515;BME280;27247;48.020;16.720;2023-08-08T00:43:33;99982.22;;;13.32;88.02
41515;BME280;27247;48.020;16.720;2023-08-08T00:47:43;99965.72;;;13.35;88.86
41515;BME280;27247;48.020;16.720;2023-08-08T00:51:53;99976.47;;;13.35;88.77
41515;BME280;27247;48.020;16.720;2023-08-08T00:56:04;99972.69;;;13.29;88.63
41515;BME280;27247;48.020;16.720;2023-08-08T01:00:15;99967.72;;;13.26;88.81
41515;BME280;27247;48.020;16.720;2023-08-08T01:04:26;99975.94;;;13.25;89.46
41515;BME280;27247;48.020;16.720;2023-08-08T01:08:45;99972.91;;;13.13;89.50
41515;BME280;27247;48.020;16.720;2023-08-08T01:13:00;99972.25;;;13.11;89.21
41515;BME280;27247;48.020;16.720;2023-08-08T01:17:13;99986.94;;;13.15;89.23
41515;BME280;27247;48.020;16.720;2023-08-08T01:21:26;99985.47;;;13.13;89.69
41515;BME280;27247;48.020;16.720;2023-08-08T01:25:39;99976.78;;;13.10;90.01
41515;BME280;27247;48.020;16.720;2023-08-08T01:29:50;99984.38;;;13.07;90.49
41515;BME280;27247;48.020;16.720;2023-08-08T01:34:00;99982.00;;;12.97;91.63
41515;BME280;27247;48.020;16.720;2023-08-08T01:38:14;99979.97;;;12.85;91.82
41515;BME280;27247;48.020;16.720;2023-08-08T01:42:29;99986.81;;;12.87;91.68
41515;BME280;27247;48.020;16.720;2023-08-08T01:46:40;99985.53;;;12.83;92.16
41515;BME280;27247;48.020;16.720;2023-08-08T01:50:50;99991.72;;;12.84;91.95
41515;BME280;27247;48.020;16.720;2023-08-08T01:55:02;99995.34;;;12.76;92.38
41515;BME280;27247;48.020;16.720;2023-08-08T01:59:12;99993.47;;;12.76;93.12
41515;BME280;27247;48.020;16.720;2023-08-08T02:03:22;99999.31;;;12.65;93.50
41515;BME280;27247;48.020;16.720;2023-08-08T02:07:33;100001.72;;;12.60;94.01
41515;BME280;27247;48.020;16.720;2023-08-08T02:11:43;100008.00;;;12.53;94.28
41515;BME280;27247;48.020;16.720;2023-08-08T02:15:53;100008.22;;;12.43;95.47
41515;BME280;27247;48.020;16.720;2023-08-08T02:20:05;100007.22;;;12.44;94.83
41515;BME280;27247;48.020;16.720;2023-08-08T02:24:16;100010.72;;;12.44;94.83
41515;BME280;27247;48.020;16.720;2023-08-08T02:28:26;100019.97;;;12.42;94.40
41515;BME280;27247;48.020;16.720;2023-08-08T02:32:37;100018.97;;;12.43;95.03
41515;BME280;27247;48.020;16.720;2023-08-08T02:36:47;100026.72;;;12.38;95.87
41515;BME280;27247;48.020;16.720;2023-08-08T02:40:58;100021.97;;;12.25;96.27
41515;BME280;27247;48.020;16.720;2023-08-08T02:45:08;100018.25;;;12.11;96.83
41515;BME280;27247;48.020;16.720;2023-08-08T02:49:19;100014.38;;;12.14;96.63
41515;BME280;27247;48.020;16.720;2023-08-08T02:53:29;100011.88;;;12.12;96.68
41515;BME280;27247;48.020;16.720;2023-08-08T02:57:39;100022.66;;;12.04;97.05
41515;BME280;27247;48.020;16.720;2023-08-08T03:01:50;100029.69;;;12.05;96.90
41515;BME280;27247;48.020;16.720;2023-08-08T03:06:01;100026.72;;;12.00;96.56
41515;BME280;27247;48.020;16.720;2023-08-08T03:10:12;100019.88;;;11.98;96.61
41515;BME280;27247;48.020;16.720;2023-08-08T03:14:22;100025.84;;;11.85;96.77
41515;BME280;27247;48.020;16.720;2023-08-08T03:18:33;100032.38;;;11.82;96.91
41515;BME280;27247;48.020;16.720;2023-08-08T03:22:43;100037.13;;;11.72;97.44
41515;BME280;27247;48.020;16.720;2023-08-08T03:26:53;100041.16;;;11.68;97.63
41515;BME280;27247;48.020;16.720;2023-08-08T03:31:04;100048.75;;;11.57;98.58
41515;BME280;27247;48.020;16.720;2023-08-08T03:35:14;100040.44;;;11.51;99.51
41515;BME280;27247;48.020;16.720;2023-08-08T03:39:25;100038.28;;;11.47;99.90
41515;BME280;27247;48.020;16.720;2023-08-08T03:43:35;100044.66;;;11.38;100.00
41515;BME280;27247;48.020;16.720;2023-08-08T03:47:45;100032.59;;;11.42;100.00
41515;BME280;27247;48.020;16.720;2023-08-08T03:51:56;100029.47;;;11.30;100.00
41515;BME280;27247;48.020;16.720;2023-08-08T03:56:06;100037.19;;;11.25;100.00
41515;BME280;27247;48.020;16.720;2023-08-08T04:00:17;100032.56;;;11.19;100.00
41515;BME280;27247;48.020;16.720;2023-08-08T04:04:28;100047.09;;;11.16;100.00
41515;BME280;27247;48.020;16.720;2023-08-08T04:08:38;100045.31;;;11.09;100.00
41515;BME280;27247;48.020;16.720;2023-08-08T04:12:48;100048.94;;;11.16;100.00
41515;BME280;27247;48.020;16.720;2023-08-08T04:16:59;100050.94;;;11.22;100.00
41515;BME280;27247;48.020;16.720;2023-08-08T04:21:09;100055.56;;;11.28;100.00
41515;BME280;27247;48.020;16.720;2023-08-08T04:25:19;100065.06;;;11.39;100.00
41515;BME280;27247;48.020;16.720;2023-08-08T04:29:31;100060.34;;;11.49;100.00
41515;BME280;27247;48.020;16.720;2023-08-08T04:33:41;100066.78;;;11.63;100.00
41515;BME280;27247;48.020;16.720;2023-08-08T04:37:51;100078.44;;;11.78;100.00
41515;BME280;27247;48.020;16.720;2023-08-08T04:42:02;100074.50;;;11.89;100.00
41515;BME280;27247;48.020;16.720;2023-08-08T04:46:12;100073.09;;;12.01;100.00
41515;BME280;27247;48.020;16.720;2023-08-08T04:50:23;100076.53;;;12.09;100.00
41515;BME280;27247;48.020;16.720;2023-08-08T04:54:33;100075.81;;;12.15;100.00
41515;BME280;27247;48.020;16.720;2023-08-08T04:58:44;100080.09;;;12.25;100.00
41515;BME280;27247;48.020;16.720;2023-08-08T05:02:54;100092.22;;;12.35;100.00
41515;BME280;27247;48.020;16.720;2023-08-08T05:07:04;100081.59;;;12.27;100.00
41515;BME280;27247;48.020;16.720;2023-08-08T05:11:16;100082.16;;;12.37;100.00
41515;BME280;27247;48.020;16.720;2023-08-08T05:15:26;100079.41;;;12.45;100.00
41515;BME280;27247;48.020;16.720;2023-08-08T05:19:36;100082.41;;;12.51;100.00
41515;BME280;27247;48.020;16.720;2023-08-08T05:23:47;100092.22;;;12.58;100.00
41515;BME280;27247;48.020;16.720;2023-08-08T05:27:57;100092.94;;;12.52;100.00
41515;BME280;27247;48.020;16.720;2023-08-08T05:32:08;100094.53;;;12.61;100.00
41515;BME280;27247;48.020;16.720;2023-08-08T05:36:18;100093.44;;;12.70;100.00
41515;BME280;27247;48.020;16.720;2023-08-08T05:40:28;100083.94;;;12.83;100.00
41515;BME280;27247;48.020;16.720;2023-08-08T05:44:39;100092.16;;;12.96;100.00
41515;BME280;27247;48.020;16.720;2023-08-08T05:48:51;100085.13;;;13.09;100.00
41515;BME280;27247;48.020;16.720;2023-08-08T05:53:02;100082.38;;;13.32;100.00
41515;BME280;27247;48.020;16.720;2023-08-08T05:57:12;100081.03;;;13.58;100.00
41515;BME280;27247;48.020;16.720;2023-08-08T06:01:23;100070.97;;;13.81;99.02
41515;BME280;27247;48.020;16.720;2023-08-08T06:05:33;100072.91;;;14.09;97.94
41515;BME280;27247;48.020;16.720;2023-08-08T06:09:44;100064.03;;;14.36;92.50
41515;BME280;27247;48.020;16.720;2023-08-08T06:13:54;100067.88;;;14.69;92.51
41515;BME280;27247;48.020;16.720;2023-08-08T06:18:05;100085.66;;;14.98;92.11
41515;BME280;27247;48.020;16.720;2023-08-08T06:22:16;100087.28;;;15.34;86.78
41515;BME280;27247;48.020;16.720;2023-08-08T06:26:26;100096.16;;;15.62;86.55
41515;BME280;27247;48.020;16.720;2023-08-08T06:30:37;100101.84;;;15.94;83.26
41515;BME280;27247;48.020;16.720;2023-08-08T06:34:47;100094.84;;;16.33;83.58
41515;BME280;27247;48.020;16.720;2023-08-08T06:38:57;100097.34;;;16.60;81.56
41515;BME280;27247;48.020;16.720;2023-08-08T06:43:08;100091.94;;;17.00;81.94
41515;BME280;27247;48.020;16.720;2023-08-08T06:47:18;100096.25;;;17.21;77.27
41515;BME280;27247;48.020;16.720;2023-08-08T06:51:28;100093.63;;;17.59;79.09
41515;BME280;27247;48.020;16.720;2023-08-08T06:55:39;100093.72;;;17.91;76.85
41515;BME280;27247;48.020;16.720;2023-08-08T06:59:49;100086.66;;;18.21;75.64
41515;BME280;27247;48.020;16.720;2023-08-08T07:04:01;100088.16;;;18.42;72.56
41515;BME280;27247;48.020;16.720;2023-08-08T07:08:11;100082.78;;;18.60;72.82
41515;BME280;27247;48.020;16.720;2023-08-08T07:12:21;100081.09;;;18.66;71.36
41515;BME280;27247;48.020;16.720;2023-08-08T07:16:32;100086.88;;;18.44;68.77
41515;BME280;27247;48.020;16.720;2023-08-08T07:20:42;100103.00;;;18.58;70.17
41515;BME280;27247;48.020;16.720;2023-08-08T07:24:52;100094.34;;;18.80;69.79
41515;BME280;27247;48.020;16.720;2023-08-08T07:29:03;100094.34;;;18.99;70.83
41515;BME280;27247;48.020;16.720;2023-08-08T07:33:16;100106.94;;;19.30;71.81
41515;BME280;27247;48.020;16.720;2023-08-08T07:37:26;100094.53;;;19.59;68.91
41515;BME280;27247;48.020;16.720;2023-08-08T07:41:37;100091.41;;;19.73;67.04
41515;BME280;27247;48.020;16.720;2023-08-08T07:45:47;100091.34;;;19.80;66.71
41515;BME280;27247;48.020;16.720;2023-08-08T07:49:57;100082.59;;;20.08;66.43
41515;BME280;27247;48.020;16.720;2023-08-08T07:54:08;100076.97;;;20.21;66.28
41515;BME280;27247;48.020;16.720;2023-08-08T07:58:20;100082.13;;;20.41;67.06
41515;BME280;27247;48.020;16.720;2023-08-08T08:02:33;100076.84;;;20.69;65.22
41515;BME280;27247;48.020;16.720;2023-08-08T08:06:43;100079.69;;;20.86;64.25
41515;BME280;27247;48.020;16.720;2023-08-08T08:10:54;100069.63;;;20.75;62.88
41515;BME280;27247;48.020;16.720;2023-08-08T08:15:04;100080.50;;;20.75;63.77
41515;BME280;27247;48.020;16.720;2023-08-08T08:19:15;100062.31;;;20.76;63.70
41515;BME280;27247;48.020;16.720;2023-08-08T08:23:25;100060.53;;;21.04;62.83
41515;BME280;27247;48.020;16.720;2023-08-08T08:27:36;100060.97;;;21.37;61.72
41515;BME280;27247;48.020;16.720;2023-08-08T08:31:47;100056.63;;;21.64;61.07
41515;BME280;27247;48.020;16.720;2023-08-08T08:35:57;100046.22;;;21.61;58.96
41515;BME280;27247;48.020;16.720;2023-08-08T08:40:08;100043.63;;;21.26;61.04
41515;BME280;27247;48.020;16.720;2023-08-08T08:44:21;100045.41;;;21.60;61.80
41515;BME280;27247;48.020;16.720;2023-08-08T08:48:31;100047.94;;;21.79;63.79
41515;BME280;27247;48.020;16.720;2023-08-08T08:52:42;100043.19;;;22.14;61.53
41515;BME280;27247;48.020;16.720;2023-08-08T08:56:53;100042.94;;;22.49;61.51
41515;BME280;27247;48.020;16.720;2023-08-08T09:01:03;100045.88;;;22.65;60.15
41515;BME280;27247;48.020;16.720;2023-08-08T09:05:15;100042.50;;;22.07;58.23
41515;BME280;27247;48.020;16.720;2023-08-08T09:09:25;100041.63;;;22.18;60.42
41515;BME280;27247;48.020;16.720;2023-08-08T09:13:37;100035.16;;;21.79;59.87
41515;BME280;27247;48.020;16.720;2023-08-08T09:17:48;100035.06;;;21.46;60.35
41515;BME280;27247;48.020;16.720;2023-08-08T09:21:59;100037.94;;;21.27;62.89
41515;BME280;27247;48.020;16.720;2023-08-08T09:26:09;100040.09;;;21.02;61.67
41515;BME280;27247;48.020;16.720;2023-08-08T09:30:20;100037.88;;;20.64;61.24
41515;BME280;27247;48.020;16.720;2023-08-08T09:34:31;100042.31;;;20.35;62.44
41515;BME280;27247;48.020;16.720;2023-08-08T09:38:41;100031.69;;;20.33;63.45
41515;BME280;27247;48.020;16.720;2023-08-08T09:42:52;100049.25;;;20.19;64.05
41515;BME280;27247;48.020;16.720;2023-08-08T09:47:05;100049.13;;;20.14;64.39
41515;BME280;27247;48.020;16.720;2023-08-08T09:51:16;100052.19;;;20.18;64.61
41515;BME280;27247;48.020;16.720;2023-08-08T09:55:26;100043.06;;;20.42;64.73
41515;BME280;27247;48.020;16.720;2023-08-08T09:59:39;100036.56;;;20.78;63.49
41515;BME280;27247;48.020;16.720;2023-08-08T10:03:51;100032.44;;;20.99;60.04
41515;BME280;27247;48.020;16.720;2023-08-08T10:08:02;100029.78;;;21.16;59.84
41515;BME280;27247;48.020;16.720;2023-08-08T10:12:12;100023.97;;;21.35;62.02
41515;BME280;27247;48.020;16.720;2023-08-08T10:16:23;100028.78;;;21.45;60.31
41515;BME280;27247;48.020;16.720;2023-08-08T10:20:36;100028.84;;;21.62;59.58
41515;BME280;27247;48.020;16.720;2023-08-08T10:24:47;100023.94;;;21.76;58.75
41515;BME280;27247;48.020;16.720;2023-08-08T10:29:00;100020.78;;;21.95;58.69
41515;BME280;27247;48.020;16.720;2023-08-08T10:33:23;100015.47;;;22.17;58.49
41515;BME280;27247;48.020;16.720;2023-08-08T10:37:35;100007.97;;;22.24;57.52
41515;BME280;27247;48.020;16.720;2023-08-08T10:41:49;100005.28;;;21.96;56.92
41515;BME280;27247;48.020;16.720;2023-08-08T10:46:01;100000.00;;;21.61;59.20
41515;BME280;27247;48.020;16.720;2023-08-08T10:50:14;99998.63;;;21.47;57.14
41515;BME280;27247;48.020;16.720;2023-08-08T10:54:25;99996.72;;;21.07;58.57
41515;BME280;27247;48.020;16.720;2023-08-08T10:58:46;99991.88;;;21.49;61.05
41515;BME280;27247;48.020;16.720;2023-08-08T11:02:58;99988.16;;;21.39;57.13
41515;BME280;27247;48.020;16.720;2023-08-08T11:07:08;99984.59;;;21.38;58.71
41515;BME280;27247;48.020;16.720;2023-08-08T11:11:19;99988.53;;;21.19;59.11
41515;BME280;27247;48.020;16.720;2023-08-08T11:15:31;99977.22;;;21.10;58.80
41515;BME280;27247;48.020;16.720;2023-08-08T11:19:42;99979.88;;;20.93;57.25
41515;BME280;27247;48.020;16.720;2023-08-08T11:23:52;99975.91;;;21.13;61.50
41515;BME280;27247;48.020;16.720;2023-08-08T11:28:02;99969.06;;;21.10;59.32
41515;BME280;27247;48.020;16.720;2023-08-08T11:32:13;99974.34;;;20.88;60.28
41515;BME280;27247;48.020;16.720;2023-08-08T11:36:23;99958.31;;;21.15;57.68
41515;BME280;27247;48.020;16.720;2023-08-08T11:40:34;99958.06;;;21.28;57.17
41515;BME280;27247;48.020;16.720;2023-08-08T11:44:44;99951.72;;;21.68;55.97
41515;BME280;27247;48.020;16.720;2023-08-08T11:49:02;99952.31;;;21.87;56.20
41515;BME280;27247;48.020;16.720;2023-08-08T11:53:12;99944.44;;;21.57;58.30
41515;BME280;27247;48.020;16.720;2023-08-08T11:57:23;99947.66;;;21.71;55.88
41515;BME280;27247;48.020;16.720;2023-08-08T12:01:33;99941.88;;;21.50;57.90
41515;BME280;27247;48.020;16.720;2023-08-08T12:05:48;99932.41;;;21.70;58.01
41515;BME280;27247;48.020;16.720;2023-08-08T12:09:58;99917.00;;;21.75;56.80
41515;BME280;27247;48.020;16.720;2023-08-08T12:14:09;99918.56;;;21.54;54.18
41515;BME280;27247;48.020;16.720;2023-08-08T12:18:24;99907.09;;;21.69;57.07
41515;BME280;27247;48.020;16.720;2023-08-08T12:22:35;99915.91;;;21.59;56.21
41515;BME280;27247;48.020;16.720;2023-08-08T12:26:46;99910.56;;;21.64;56.05
41515;BME280;27247;48.020;16.720;2023-08-08T12:30:57;99913.88;;;21.66;57.82
41515;BME280;27247;48.020;16.720;2023-08-08T12:35:07;99910.31;;;21.66;55.51
41515;BME280;27247;48.020;16.720;2023-08-08T12:39:18;99913.03;;;21.49;56.45
41515;BME280;27247;48.020;16.720;2023-08-08T12:43:28;99912.28;;;21.54;57.71
41515;BME280;27247;48.020;16.720;2023-08-08T12:47:39;99901.78;;;21.91;57.65
41515;BME280;27247;48.020;16.720;2023-08-08T12:51:50;99900.41;;;22.05;58.19
41515;BME280;27247;48.020;16.720;2023-08-08T12:56:01;99902.34;;;21.76;57.59
41515;BME280;27247;48.020;16.720;2023-08-08T13:00:13;99899.38;;;21.94;57.90
41515;BME280;27247;48.020;16.720;2023-08-08T13:04:23;99891.78;;;21.80;56.91
41515;BME280;27247;48.020;16.720;2023-08-08T13:08:35;99888.00;;;21.97;56.94
41515;BME280;27247;48.020;16.720;2023-08-08T13:12:46;99891.22;;;22.50;55.50
41515;BME280;27247;48.020;16.720;2023-08-08T13:16:57;99885.63;;;22.18;55.48
41515;BME280;27247;48.020;16.720;2023-08-08T13:21:07;99889.97;;;21.68;55.58
41515;BME280;27247;48.020;16.720;2023-08-08T13:25:18;99892.03;;;21.61;57.44
41515;BME280;27247;48.020;16.720;2023-08-08T13:29:31;99885.81;;;21.32;55.89
41515;BME280;27247;48.020;16.720;2023-08-08T13:33:42;99884.69;;;21.17;56.21
41515;BME280;27247;48.020;16.720;2023-08-08T13:37:52;99879.84;;;20.90;56.70
41515;BME280;27247;48.020;16.720;2023-08-08T13:42:04;99881.47;;;20.91;57.01
41515;BME280;27247;48.020;16.720;2023-08-08T13:46:15;99871.88;;;21.00;57.54
41515;BME280;27247;48.020;16.720;2023-08-08T13:50:26;99869.94;;;21.13;57.19
41515;BME280;27247;48.020;16.720;2023-08-08T13:54:36;99858.53;;;21.27;56.86
41515;BME280;27247;48.020;16.720;2023-08-08T13:58:46;99867.84;;;21.31;57.27
41515;BME280;27247;48.020;16.720;2023-08-08T14:02:57;99856.41;;;21.46;56.21
41515;BME280;27247;48.020;16.720;2023-08-08T14:07:08;99850.00;;;21.86;55.07
41515;BME280;27247;48.020;16.720;2023-08-08T14:11:18;99860.31;;;22.39;54.69
41515;BME280;27247;48.020;16.720;2023-08-08T14:15:28;99858.59;;;22.55;54.14
41515;BME280;27247;48.020;16.720;2023-08-08T14:19:39;99856.38;;;22.52;55.17
41515;BME280;27247;48.020;16.720;2023-08-08T14:23:49;99861.72;;;22.85;55.28
41515;BME280;27247;48.020;16.720;2023-08-08T14:27:59;99852.91;;;23.00;52.53
41515;BME280;27247;48.020;16.720;2023-08-08T14:32:11;99847.34;;;22.90;52.49
41515;BME280;27247;48.020;16.720;2023-08-08T14:36:22;99835.69;;;23.21;53.32
41515;BME280;27247;48.020;16.720;2023-08-08T14:40:32;99837.38;;;23.28;50.66
41515;BME280;27247;48.020;16.720;2023-08-08T14:44:44;99829.63;;;23.46;51.23
41515;BME280;27247;48.020;16.720;2023-08-08T14:48:55;99830.19;;;23.48;51.60
41515;BME280;27247;48.020;16.720;2023-08-08T14:53:05;99827.06;;;23.35;51.44
41515;BME280;27247;48.020;16.720;2023-08-08T14:57:15;99814.56;;;23.07;51.48
41515;BME280;27247;48.020;16.720;2023-08-08T15:01:26;99811.00;;;23.38;52.66
41515;BME280;27247;48.020;16.720;2023-08-08T15:05:36;99816.72;;;23.37;52.81
41515;BME280;27247;48.020;16.720;2023-08-08T15:09:47;99820.75;;;23.29;51.91
41515;BME280;27247;48.020;16.720;2023-08-08T15:13:58;99823.44;;;23.24;52.65
41515;BME280;27247;48.020;16.720;2023-08-08T15:18:08;99821.47;;;22.71;53.85
41515;BME280;27247;48.020;16.720;2023-08-08T15:22:19;99832.75;;;22.79;52.81
41515;BME280;27247;48.020;16.720;2023-08-08T15:26:29;99827.69;;;22.88;53.21
41515;BME280;27247;48.020;16.720;2023-08-08T15:30:39;99827.38;;;22.62;53.65
41515;BME280;27247;48.020;16.720;2023-08-08T15:34:50;99830.03;;;22.36;53.65
41515;BME280;27247;48.020;16.720;2023-08-08T15:39:00;99814.44;;;22.09;55.23
41515;BME280;27247;48.020;16.720;2023-08-08T15:43:10;99824.69;;;21.85;56.09
41515;BME280;27247;48.020;16.720;2023-08-08T15:47:21;99828.72;;;21.99;56.77
41515;BME280;27247;48.020;16.720;2023-08-08T15:51:31;99826.47;;;22.13;57.69
41515;BME280;27247;48.020;16.720;2023-08-08T15:55:42;99821.47;;;22.05;56.49
41515;BME280;27247;48.020;16.720;2023-08-08T15:59:52;99818.63;;;22.17;57.06
41515;BME280;27247;48.020;16.720;2023-08-08T16:04:03;99814.09;;;22.22;57.18
41515;BME280;27247;48.020;16.720;2023-08-08T16:08:13;99803.31;;;22.33;57.19
41515;BME280;27247;48.020;16.720;2023-08-08T16:12:23;99811.09;;;22.24;57.72
41515;BME280;27247;48.020;16.720;2023-08-08T16:16:34;99810.91;;;22.09;57.38
41515;BME280;27247;48.020;16.720;2023-08-08T16:20:44;99818.00;;;22.10;58.64
41515;BME280;27247;48.020;16.720;2023-08-08T16:24:55;99814.38;;;22.04;59.62
41515;BME280;27247;48.020;16.720;2023-08-08T16:29:05;99815.53;;;22.08;58.67
41515;BME280;27247;48.020;16.720;2023-08-08T16:33:16;99816.03;;;22.05;57.61
41515;BME280;27247;48.020;16.720;2023-08-08T16:37:26;99824.91;;;21.84;57.63
41515;BME280;27247;48.020;16.720;2023-08-08T16:41:36;99814.38;;;21.71;58.70
41515;BME280;27247;48.020;16.720;2023-08-08T16:45:47;99813.81;;;21.68;59.13
41515;BME280;27247;48.020;16.720;2023-08-08T16:49:57;99816.44;;;21.63;59.15
41515;BME280;27247;48.020;16.720;2023-08-08T16:54:08;99814.72;;;21.41;59.72
41515;BME280;27247;48.020;16.720;2023-08-08T16:58:18;99815.22;;;21.38;60.72
41515;BME280;27247;48.020;16.720;2023-08-08T17:02:28;99813.53;;;21.20;60.56
41515;BME280;27247;48.020;16.720;2023-08-08T17:06:39;99809.66;;;21.16;61.09
41515;BME280;27247;48.020;16.720;2023-08-08T17:10:49;99802.44;;;20.93;61.60
41515;BME280;27247;48.020;16.720;2023-08-08T17:15:01;99809.34;;;20.84;61.88
41515;BME280;27247;48.020;16.720;2023-08-08T17:19:11;99804.59;;;20.79;62.77
41515;BME280;27247;48.020;16.720;2023-08-08T17:23:22;99804.94;;;20.54;63.38
41515;BME280;27247;48.020;16.720;2023-08-08T17:27:33;99812.41;;;20.47;64.16
41515;BME280;27247;48.020;16.720;2023-08-08T17:31:45;99809.44;;;20.37;64.17
41515;BME280;27247;48.020;16.720;2023-08-08T17:35:56;99798.72;;;20.30;64.82
41515;BME280;27247;48.020;16.720;2023-08-08T17:40:07;99802.44;;;20.13;65.20
41515;BME280;27247;48.020;16.720;2023-08-08T17:44:19;99797.38;;;20.04;65.95
41515;BME280;27247;48.020;16.720;2023-08-08T17:48:30;99806.13;;;19.95;66.06
41515;BME280;27247;48.020;16.720;2023-08-08T17:52:41;99806.94;;;19.84;66.36
41515;BME280;27247;48.020;16.720;2023-08-08T17:56:52;99803.16;;;19.85;66.71
41515;BME280;27247;48.020;16.720;2023-08-08T18:01:02;99808.00;;;19.94;67.39
41515;BME280;27247;48.020;16.720;2023-08-08T18:05:13;99807.75;;;19.96;67.73
41515;BME280;27247;48.020;16.720;2023-08-08T18:09:25;99823.56;;;19.87;68.10
41515;BME280;27247;48.020;16.720;2023-08-08T18:13:39;99828.16;;;19.87;68.42
41515;BME280;27247;48.020;16.720;2023-08-08T18:17:55;99832.16;;;19.72;69.15
41515;BME280;27247;48.020;16.720;2023-08-08T18:22:08;99829.19;;;19.62;69.85
41515;BME280;27247;48.020;16.720;2023-08-08T18:26:22;99841.66;;;19.52;70.59
41515;BME280;27247;48.020;16.720;2023-08-08T18:30:34;99843.44;;;19.58;71.48
41515;BME280;27247;48.020;16.720;2023-08-08T18:34:45;99848.00;;;19.45;70.87
41515;BME280;27247;48.020;16.720;2023-08-08T18:38:57;99853.44;;;19.45;72.53
41515;BME280;27247;48.020;16.720;2023-08-08T18:43:08;99854.94;;;19.41;74.00
41515;BME280;27247;48.020;16.720;2023-08-08T18:47:19;99867.63;;;19.18;75.01
41515;BME280;27247;48.020;16.720;2023-08-08T18:51:29;99872.16;;;19.05;75.17
41515;BME280;27247;48.020;16.720;2023-08-08T18:55:40;99879.56;;;18.98;75.39
41515;BME280;27247;48.020;16.720;2023-08-08T18:59:53;99871.56;;;18.73;76.68
41515;BME280;27247;48.020;16.720;2023-08-08T19:04:04;99870.19;;;18.64;77.16
41515;BME280;27247;48.020;16.720;2023-08-08T19:08:17;99872.19;;;18.50;77.52
41515;BME280;27247;48.020;16.720;2023-08-08T19:12:27;99874.53;;;18.47;76.63
41515;BME280;27247;48.020;16.720;2023-08-08T19:16:39;99868.50;;;18.45;75.70
41515;BME280;27247;48.020;16.720;2023-08-08T19:20:51;99871.91;;;18.22;76.35
41515;BME280;27247;48.020;16.720;2023-08-08T19:25:02;99882.69;;;18.04;78.27
41515;BME280;27247;48.020;16.720;2023-08-08T19:29:15;99874.63;;;17.97;78.72
41515;BME280;27247;48.020;16.720;2023-08-08T19:33:27;99878.75;;;17.81;76.68
41515;BME280;27247;48.020;16.720;2023-08-08T19:37:39;99869.97;;;17.86;76.38
41515;BME280;27247;48.020;16.720;2023-08-08T19:41:50;99869.75;;;17.88;76.91
41515;BME280;27247;48.020;16.720;2023-08-08T19:46:02;99869.91;;;17.93;77.77
41515;BME280;27247;48.020;16.720;2023-08-08T19:50:12;99875.09;;;17.94;78.85
41515;BME280;27247;48.020;16.720;2023-08-08T19:54:24;99872.41;;;17.69;79.65
41515;BME280;27247;48.020;16.720;2023-08-08T19:58:34;99877.63;;;17.58;78.94
41515;BME280;27247;48.020;16.720;2023-08-08T20:02:45;99885.09;;;17.69;78.61
41515;BME280;27247;48.020;16.720;2023-08-08T20:06:56;99882.75;;;17.66;79.66
41515;BME280;27247;48.020;16.720;2023-08-08T20:11:07;99884.88;;;17.70;80.19
41515;BME280;27247;48.020;16.720;2023-08-08T20:15:18;99883.81;;;17.65;80.60
41515;BME280;27247;48.020;16.720;2023-08-08T20:19:29;99881.22;;;17.51;79.91
41515;BME280;27247;48.020;16.720;2023-08-08T20:23:39;99887.44;;;17.52;80.26
41515;BME280;27247;48.020;16.720;2023-08-08T20:27:50;99884.47;;;17.60;80.46
41515;BME280;27247;48.020;16.720;2023-08-08T20:32:01;99884.13;;;17.50;80.91
41515;BME280;27247;48.020;16.720;2023-08-08T20:36:13;99881.78;;;17.60;81.04
41515;BME280;27247;48.020;16.720;2023-08-08T20:40:24;99888.09;;;17.47;81.62
41515;BME280;27247;48.020;16.720;2023-08-08T20:44:35;99893.22;;;17.31;82.19
41515;BME280;27247;48.020;16.720;2023-08-08T20:48:45;99898.69;;;17.17;82.99
41515;BME280;27247;48.020;16.720;2023-08-08T20:52:56;99896.88;;;17.11;83.49
41515;BME280;27247;48.020;16.720;2023-08-08T20:57:10;99899.38;;;17.06;83.70
41515;BME280;27247;48.020;16.720;2023-08-08T21:01:21;99906.84;;;17.11;83.29
41515;BME280;27247;48.020;16.720;2023-08-08T21:05:31;99902.44;;;17.16;83.97
41515;BME280;27247;48.020;16.720;2023-08-08T21:09:43;99900.38;;;17.12;83.99
41515;BME280;27247;48.020;16.720;2023-08-08T21:13:53;99907.16;;;16.89;84.84
41515;BME280;27247;48.020;16.720;2023-08-08T21:18:04;99904.09;;;16.79;86.78
41515;BME280;27247;48.020;16.720;2023-08-08T21:22:14;99908.47;;;16.74;87.85
41515;BME280;27247;48.020;16.720;2023-08-08T21:26:25;99906.81;;;16.59;88.61
41515;BME280;27247;48.020;16.720;2023-08-08T21:30:35;99914.31;;;16.44;90.07
41515;BME280;27247;48.020;16.720;2023-08-08T21:34:45;99902.94;;;16.29;91.10
41515;BME280;27247;48.020;16.720;2023-08-08T21:38:57;99908.38;;;16.16;91.38
41515;BME280;27247;48.020;16.720;2023-08-08T21:43:07;99899.69;;;15.94;92.41